sensor_id;sensor_type;location;lat;lon;timestamp;P1;durP1;ratioP1;P2;durP2;ratioP2
10299;SDS011;5195;48.562;9.192;2022-09-27T00:00:18;1.12;;;0.90;;
10299;SDS011;5195;48.562;9.192;2022-09-27T00:02:54;1.00;;;0.90;;
10299;SDS011;5195;48.562;9.192;2022-09-27T00:05:30;0.67;;;0.67;;
10299;SDS011;5195;48.562;9.192;2022-09-27T00:08:05;1.02;;;0.93;;
10299;SDS011;5195;48.562;9.192;2022-09-27T00:10:41;0.80;;;0.80;;
10299;SDS011;5195;48.562;9.192;2022-09-27T00:13:16;0.90;;;0.90;;
10299;SDS011;5195;48.562;9.192;2022-09-27T00:15:56;0.70;;;0.70;;
10299;SDS011;5195;48.562;9.192;2022-09-27T00:18:33;1.00;;;0.90;;
10299;SDS011;5195;48.562;9.192;2022-09-27T00:21:09;0.90;;;0.90;;
10299;SDS011;5195;48.562;9.192;2022-09-27T00:23:44;1.17;;;0.73;;
10299;SDS011;5195;48.562;9.192;2022-09-27T00:26:19;1.65;;;0.93;;
10299;SDS011;5195;48.562;9.192;2022-09-27T00:28:55;0.50;;;0.50;;
10299;SDS011;5195;48.562;9.192;2022-09-27T00:31:31;1.73;;;0.82;;
10299;SDS011;5195;48.562;9.192;2022-09-27T00:34:06;1.20;;;0.60;;
10299;SDS011;5195;48.562;9.192;2022-09-27T00:36:41;0.90;;;0.90;;
10299;SDS011;5195;48.562;9.192;2022-09-27T00:39:17;1.20;;;0.85;;
10299;SDS011;5195;48.562;9.192;2022-09-27T00:41:53;1.23;;;0.70;;
10299;SDS011;5195;48.562;9.192;2022-09-27T00:52:23;0.93;;;0.70;;
10299;SDS011;5195;48.562;9.192;2022-09-27T00:54:59;1.10;;;0.43;;
10299;SDS011;5195;48.562;9.192;2022-09-27T00:57:33;1.07;;;0.60;;
10299;SDS011;5195;48.562;9.192;2022-09-27T01:00:11;1.30;;;0.60;;
10299;SDS011;5195;48.562;9.192;2022-09-27T01:02:48;0.60;;;0.60;;
10299;SDS011;5195;48.562;9.192;2022-09-27T01:05:23;0.63;;;0.50;;
10299;SDS011;5195;48.562;9.192;2022-09-27T01:07:58;0.60;;;0.40;;
10299;SDS011;5195;48.562;9.192;2022-09-27T01:10:37;0.43;;;0.43;;
10299;SDS011;5195;48.562;9.192;2022-09-27T01:13:18;0.70;;;0.50;;
10299;SDS011;5195;48.562;9.192;2022-09-27T01:18:44;1.07;;;0.50;;
10299;SDS011;5195;48.562;9.192;2022-09-27T01:21:29;0.97;;;0.30;;
10299;SDS011;5195;48.562;9.192;2022-09-27T01:24:24;2.00;;;0.40;;
10299;SDS011;5195;48.562;9.192;2022-09-27T01:32:49;0.30;;;0.30;;
10299;SDS011;5195;48.562;9.192;2022-09-27T01:40:58;0.55;;;0.55;;
10299;SDS011;5195;48.562;9.192;2022-09-27T01:43:33;0.33;;;0.33;;
10299;SDS011;5195;48.562;9.192;2022-09-27T01:46:09;1.70;;;0.47;;
10299;SDS011;5195;48.562;9.192;2022-09-27T01:48:44;1.70;;;0.40;;
10299;SDS011;5195;48.562;9.192;2022-09-27T01:51:19;0.50;;;0.50;;
10299;SDS011;5195;48.562;9.192;2022-09-27T01:53:56;0.30;;;0.30;;
10299;SDS011;5195;48.562;9.192;2022-09-27T01:56:32;1.50;;;0.30;;
10299;SDS011;5195;48.562;9.192;2022-09-27T01:59:08;0.30;;;0.30;;
10299;SDS011;5195;48.562;9.192;2022-09-27T02:01:46;0.97;;;0.40;;
10299;SDS011;5195;48.562;9.192;2022-09-27T02:04:21;0.40;;;0.40;;
10299;SDS011;5195;48.562;9.192;2022-09-27T02:06:57;0.90;;;0.30;;
10299;SDS011;5195;48.562;9.192;2022-09-27T02:09:34;0.30;;;0.30;;
10299;SDS011;5195;48.562;9.192;2022-09-27T02:12:09;0.30;;;0.30;;
10299;SDS011;5195;48.562;9.192;2022-09-27T02:14:48;0.32;;;0.32;;
10299;SDS011;5195;48.562;9.192;2022-09-27T02:17:59;0.80;;;0.50;;
10299;SDS011;5195;48.562;9.192;2022-09-27T02:20:26;0.80;;;0.60;;
10299;SDS011;5195;48.562;9.192;2022-09-27T02:25:50;0.57;;;0.37;;
10299;SDS011;5195;48.562;9.192;2022-09-27T02:30:58;5.13;;;0.60;;
10299;SDS011;5195;48.562;9.192;2022-09-27T02:33:28;0.90;;;0.37;;
10299;SDS011;5195;48.562;9.192;2022-09-27T02:35:49;1.08;;;0.40;;
10299;SDS011;5195;48.562;9.192;2022-09-27T02:38:15;0.47;;;0.40;;
10299;SDS011;5195;48.562;9.192;2022-09-27T02:40:41;0.50;;;0.50;;
10299;SDS011;5195;48.562;9.192;2022-09-27T02:43:09;0.27;;;0.27;;
10299;SDS011;5195;48.562;9.192;2022-09-27T02:45:53;0.70;;;0.60;;
10299;SDS011;5195;48.562;9.192;2022-09-27T02:54:23;2.43;;;0.60;;
10299;SDS011;5195;48.562;9.192;2022-09-27T03:07:15;0.43;;;0.43;;
10299;SDS011;5195;48.562;9.192;2022-09-27T03:09:45;0.50;;;0.50;;
10299;SDS011;5195;48.562;9.192;2022-09-27T03:12:09;0.50;;;0.50;;
10299;SDS011;5195;48.562;9.192;2022-09-27T03:14:35;0.50;;;0.50;;
10299;SDS011;5195;48.562;9.192;2022-09-27T03:17:02;0.50;;;0.50;;
10299;SDS011;5195;48.562;9.192;2022-09-27T03:19:28;0.30;;;0.30;;
10299;SDS011;5195;48.562;9.192;2022-09-27T03:21:54;1.70;;;0.40;;
10299;SDS011;5195;48.562;9.192;2022-09-27T03:24:19;0.40;;;0.40;;
10299;SDS011;5195;48.562;9.192;2022-09-27T03:26:45;0.47;;;0.40;;
10299;SDS011;5195;48.562;9.192;2022-09-27T03:29:11;0.30;;;0.30;;
10299;SDS011;5195;48.562;9.192;2022-09-27T03:31:36;1.90;;;0.50;;
10299;SDS011;5195;48.562;9.192;2022-09-27T03:34:02;1.20;;;0.57;;
10299;SDS011;5195;48.562;9.192;2022-09-27T03:36:29;0.50;;;0.50;;
10299;SDS011;5195;48.562;9.192;2022-09-27T03:38:55;0.60;;;0.60;;
10299;SDS011;5195;48.562;9.192;2022-09-27T03:41:21;0.80;;;0.70;;
10299;SDS011;5195;48.562;9.192;2022-09-27T03:43:46;1.40;;;1.10;;
10299;SDS011;5195;48.562;9.192;2022-09-27T03:46:12;1.87;;;1.37;;
10299;SDS011;5195;48.562;9.192;2022-09-27T03:48:38;2.00;;;1.13;;
10299;SDS011;5195;48.562;9.192;2022-09-27T03:51:04;2.43;;;1.10;;
10299;SDS011;5195;48.562;9.192;2022-09-27T03:53:31;3.03;;;1.50;;
10299;SDS011;5195;48.562;9.192;2022-09-27T03:55:56;2.28;;;1.02;;
10299;SDS011;5195;48.562;9.192;2022-09-27T03:58:22;2.43;;;1.60;;
10299;SDS011;5195;48.562;9.192;2022-09-27T04:00:48;2.77;;;1.30;;
10299;SDS011;5195;48.562;9.192;2022-09-27T04:03:15;2.43;;;1.47;;
10299;SDS011;5195;48.562;9.192;2022-09-27T04:05:40;2.10;;;1.30;;
10299;SDS011;5195;48.562;9.192;2022-09-27T04:08:06;1.97;;;1.00;;
10299;SDS011;5195;48.562;9.192;2022-09-27T04:10:31;2.45;;;1.20;;
10299;SDS011;5195;48.562;9.192;2022-09-27T04:12:57;2.00;;;1.52;;
10299;SDS011;5195;48.562;9.192;2022-09-27T04:15:23;3.30;;;1.10;;
10299;SDS011;5195;48.562;9.192;2022-09-27T04:17:49;2.90;;;1.33;;
10299;SDS011;5195;48.562;9.192;2022-09-27T04:20:14;2.53;;;1.50;;
10299;SDS011;5195;48.562;9.192;2022-09-27T04:22:40;2.00;;;1.40;;
10299;SDS011;5195;48.562;9.192;2022-09-27T04:25:06;2.10;;;1.50;;
10299;SDS011;5195;48.562;9.192;2022-09-27T04:27:32;2.03;;;1.40;;
10299;SDS011;5195;48.562;9.192;2022-09-27T04:29:58;3.12;;;1.62;;
10299;SDS011;5195;48.562;9.192;2022-09-27T04:32:23;2.23;;;1.57;;
10299;SDS011;5195;48.562;9.192;2022-09-27T04:34:49;2.83;;;1.60;;
10299;SDS011;5195;48.562;9.192;2022-09-27T04:37:36;5.23;;;1.57;;
10299;SDS011;5195;48.562;9.192;2022-09-27T04:40:02;2.72;;;1.55;;
10299;SDS011;5195;48.562;9.192;2022-09-27T04:42:27;3.00;;;2.10;;
10299;SDS011;5195;48.562;9.192;2022-09-27T04:44:53;2.53;;;1.30;;
10299;SDS011;5195;48.562;9.192;2022-09-27T04:47:18;2.43;;;1.80;;
10299;SDS011;5195;48.562;9.192;2022-09-27T04:49:44;4.13;;;1.90;;
10299;SDS011;5195;48.562;9.192;2022-09-27T04:52:09;2.92;;;1.62;;
10299;SDS011;5195;48.562;9.192;2022-09-27T04:54:37;3.27;;;1.40;;
10299;SDS011;5195;48.562;9.192;2022-09-27T04:57:05;3.90;;;1.70;;
10299;SDS011;5195;48.562;9.192;2022-09-27T04:59:31;2.65;;;1.40;;
10299;SDS011;5195;48.562;9.192;2022-09-27T05:01:58;3.20;;;1.73;;
10299;SDS011;5195;48.562;9.192;2022-09-27T05:04:24;3.87;;;1.63;;
10299;SDS011;5195;48.562;9.192;2022-09-27T05:06:50;1.83;;;1.57;;
10299;SDS011;5195;48.562;9.192;2022-09-27T05:09:17;1.60;;;1.37;;
10299;SDS011;5195;48.562;9.192;2022-09-27T05:11:45;1.40;;;1.10;;
10299;SDS011;5195;48.562;9.192;2022-09-27T05:14:10;2.70;;;1.80;;
10299;SDS011;5195;48.562;9.192;2022-09-27T05:16:38;4.63;;;1.73;;
10299;SDS011;5195;48.562;9.192;2022-09-27T05:19:05;2.73;;;1.67;;
10299;SDS011;5195;48.562;9.192;2022-09-27T05:21:32;4.12;;;2.08;;
10299;SDS011;5195;48.562;9.192;2022-09-27T05:23:58;3.27;;;2.47;;
10299;SDS011;5195;48.562;9.192;2022-09-27T05:26:25;4.50;;;1.70;;
10299;SDS011;5195;48.562;9.192;2022-09-27T05:28:50;3.67;;;1.83;;
10299;SDS011;5195;48.562;9.192;2022-09-27T05:31:16;3.00;;;2.10;;
10299;SDS011;5195;48.562;9.192;2022-09-27T05:33:41;2.03;;;1.75;;
10299;SDS011;5195;48.562;9.192;2022-09-27T05:36:07;3.87;;;1.85;;
10299;SDS011;5195;48.562;9.192;2022-09-27T05:38:32;3.08;;;1.60;;
10299;SDS011;5195;48.562;9.192;2022-09-27T05:40:59;3.00;;;1.90;;
10299;SDS011;5195;48.562;9.192;2022-09-27T05:43:25;2.55;;;1.80;;
10299;SDS011;5195;48.562;9.192;2022-09-27T05:45:52;2.40;;;1.27;;
10299;SDS011;5195;48.562;9.192;2022-09-27T05:48:18;1.62;;;1.52;;
10299;SDS011;5195;48.562;9.192;2022-09-27T05:50:45;2.83;;;1.60;;
10299;SDS011;5195;48.562;9.192;2022-09-27T05:53:12;3.73;;;1.53;;
10299;SDS011;5195;48.562;9.192;2022-09-27T05:55:37;2.03;;;1.80;;
10299;SDS011;5195;48.562;9.192;2022-09-27T05:58:04;3.43;;;1.73;;
10299;SDS011;5195;48.562;9.192;2022-09-27T06:00:29;1.50;;;1.40;;
10299;SDS011;5195;48.562;9.192;2022-09-27T06:02:59;3.40;;;1.50;;
10299;SDS011;5195;48.562;9.192;2022-09-27T06:05:22;3.00;;;1.40;;
10299;SDS011;5195;48.562;9.192;2022-09-27T06:07:49;1.40;;;1.30;;
10299;SDS011;5195;48.562;9.192;2022-09-27T06:10:17;1.30;;;1.20;;
10299;SDS011;5195;48.562;9.192;2022-09-27T06:12:42;2.30;;;0.93;;
10299;SDS011;5195;48.562;9.192;2022-09-27T06:15:07;2.40;;;1.70;;
10299;SDS011;5195;48.562;9.192;2022-09-27T06:17:34;2.67;;;1.57;;
10299;SDS011;5195;48.562;9.192;2022-09-27T06:20:01;2.00;;;1.10;;
10299;SDS011;5195;48.562;9.192;2022-09-27T06:22:26;2.23;;;1.27;;
10299;SDS011;5195;48.562;9.192;2022-09-27T06:24:52;0.90;;;0.90;;
10299;SDS011;5195;48.562;9.192;2022-09-27T06:27:18;1.60;;;1.50;;
10299;SDS011;5195;48.562;9.192;2022-09-27T06:29:43;1.50;;;1.30;;
10299;SDS011;5195;48.562;9.192;2022-09-27T06:32:09;1.60;;;1.20;;
10299;SDS011;5195;48.562;9.192;2022-09-27T06:34:34;2.50;;;1.20;;
10299;SDS011;5195;48.562;9.192;2022-09-27T06:37:00;1.67;;;1.30;;
10299;SDS011;5195;48.562;9.192;2022-09-27T06:39:26;4.43;;;3.47;;
10299;SDS011;5195;48.562;9.192;2022-09-27T06:41:54;3.53;;;3.23;;
10299;SDS011;5195;48.562;9.192;2022-09-27T06:44:23;6.43;;;5.93;;
10299;SDS011;5195;48.562;9.192;2022-09-27T06:46:49;2.90;;;2.70;;
10299;SDS011;5195;48.562;9.192;2022-09-27T06:49:14;3.47;;;3.17;;
10299;SDS011;5195;48.562;9.192;2022-09-27T06:51:40;3.10;;;2.90;;
10299;SDS011;5195;48.562;9.192;2022-09-27T06:54:05;2.30;;;2.10;;
10299;SDS011;5195;48.562;9.192;2022-09-27T06:56:31;3.25;;;2.78;;
10299;SDS011;5195;48.562;9.192;2022-09-27T06:58:57;2.07;;;1.50;;
10299;SDS011;5195;48.562;9.192;2022-09-27T07:01:44;3.87;;;3.67;;
10299;SDS011;5195;48.562;9.192;2022-09-27T07:04:09;4.75;;;4.45;;
10299;SDS011;5195;48.562;9.192;2022-09-27T07:06:34;6.33;;;5.83;;
10299;SDS011;5195;48.562;9.192;2022-09-27T07:08:59;6.07;;;5.60;;
10299;SDS011;5195;48.562;9.192;2022-09-27T07:11:25;8.10;;;7.40;;
10299;SDS011;5195;48.562;9.192;2022-09-27T07:13:51;5.93;;;5.53;;
10299;SDS011;5195;48.562;9.192;2022-09-27T07:16:16;8.03;;;7.33;;
10299;SDS011;5195;48.562;9.192;2022-09-27T07:18:42;6.07;;;5.65;;
10299;SDS011;5195;48.562;9.192;2022-09-27T07:21:09;4.57;;;4.18;;
10299;SDS011;5195;48.562;9.192;2022-09-27T07:23:35;4.50;;;4.07;;
10299;SDS011;5195;48.562;9.192;2022-09-27T07:26:02;5.57;;;5.18;;
10299;SDS011;5195;48.562;9.192;2022-09-27T07:28:26;1.93;;;1.83;;
10299;SDS011;5195;48.562;9.192;2022-09-27T07:30:55;2.97;;;2.77;;
10299;SDS011;5195;48.562;9.192;2022-09-27T07:33:22;4.40;;;3.37;;
10299;SDS011;5195;48.562;9.192;2022-09-27T07:35:47;1.67;;;1.10;;
10299;SDS011;5195;48.562;9.192;2022-09-27T07:38:13;2.10;;;2.00;;
10299;SDS011;5195;48.562;9.192;2022-09-27T07:40:41;3.73;;;3.43;;
10299;SDS011;5195;48.562;9.192;2022-09-27T07:43:10;3.30;;;3.10;;
10299;SDS011;5195;48.562;9.192;2022-09-27T07:45:36;1.87;;;1.77;;
10299;SDS011;5195;48.562;9.192;2022-09-27T07:48:06;1.37;;;1.27;;
10299;SDS011;5195;48.562;9.192;2022-09-27T07:50:31;1.40;;;0.67;;
10299;SDS011;5195;48.562;9.192;2022-09-27T07:52:56;0.63;;;0.53;;
10299;SDS011;5195;48.562;9.192;2022-09-27T07:55:22;0.70;;;0.70;;
10299;SDS011;5195;48.562;9.192;2022-09-27T07:57:49;0.87;;;0.87;;
10299;SDS011;5195;48.562;9.192;2022-09-27T08:00:16;0.70;;;0.70;;
10299;SDS011;5195;48.562;9.192;2022-09-27T08:02:41;1.43;;;1.03;;
10299;SDS011;5195;48.562;9.192;2022-09-27T08:05:08;2.28;;;2.17;;
10299;SDS011;5195;48.562;9.192;2022-09-27T08:07:33;1.13;;;1.13;;
10299;SDS011;5195;48.562;9.192;2022-09-27T08:10:00;1.30;;;1.30;;
10299;SDS011;5195;48.562;9.192;2022-09-27T08:12:26;3.27;;;3.10;;
10299;SDS011;5195;48.562;9.192;2022-09-27T08:14:51;9.90;;;9.30;;
10299;SDS011;5195;48.562;9.192;2022-09-27T08:17:17;8.32;;;7.82;;
10299;SDS011;5195;48.562;9.192;2022-09-27T08:19:44;12.90;;;12.02;;
10299;SDS011;5195;48.562;9.192;2022-09-27T08:22:10;4.20;;;4.00;;
10299;SDS011;5195;48.562;9.192;2022-09-27T08:24:35;5.55;;;5.25;;
10299;SDS011;5195;48.562;9.192;2022-09-27T08:27:01;2.33;;;2.12;;
10299;SDS011;5195;48.562;9.192;2022-09-27T08:29:26;1.50;;;1.50;;
10299;SDS011;5195;48.562;9.192;2022-09-27T08:31:52;1.70;;;1.60;;
10299;SDS011;5195;48.562;9.192;2022-09-27T08:34:18;1.25;;;0.93;;
10299;SDS011;5195;48.562;9.192;2022-09-27T08:36:43;1.87;;;1.00;;
10299;SDS011;5195;48.562;9.192;2022-09-27T08:39:09;1.43;;;1.43;;
10299;SDS011;5195;48.562;9.192;2022-09-27T08:46:46;0.43;;;0.43;;
10299;SDS011;5195;48.562;9.192;2022-09-27T08:49:20;0.80;;;0.80;;
10299;SDS011;5195;48.562;9.192;2022-09-27T08:51:43;0.37;;;0.37;;
10299;SDS011;5195;48.562;9.192;2022-09-27T08:54:19;1.10;;;1.00;;
10299;SDS011;5195;48.562;9.192;2022-09-27T08:56:51;0.80;;;0.80;;
10299;SDS011;5195;48.562;9.192;2022-09-27T08:59:16;0.50;;;0.50;;
10299;SDS011;5195;48.562;9.192;2022-09-27T09:01:41;1.70;;;0.60;;
10299;SDS011;5195;48.562;9.192;2022-09-27T09:04:06;2.10;;;2.00;;
10299;SDS011;5195;48.562;9.192;2022-09-27T09:06:35;3.72;;;3.53;;
10299;SDS011;5195;48.562;9.192;2022-09-27T09:11:30;5.93;;;5.53;;
10299;SDS011;5195;48.562;9.192;2022-09-27T09:25:04;2.40;;;2.30;;
10299;SDS011;5195;48.562;9.192;2022-09-27T09:27:25;1.33;;;1.30;;
10299;SDS011;5195;48.562;9.192;2022-09-27T09:35:01;5.70;;;5.40;;
10299;SDS011;5195;48.562;9.192;2022-09-27T09:37:46;3.92;;;3.72;;
10299;SDS011;5195;48.562;9.192;2022-09-27T09:43:12;3.73;;;3.57;;
10299;SDS011;5195;48.562;9.192;2022-09-27T09:45:41;2.20;;;2.00;;
10299;SDS011;5195;48.562;9.192;2022-09-27T09:48:15;0.70;;;0.70;;
10299;SDS011;5195;48.562;9.192;2022-09-27T09:50:48;4.43;;;4.10;;
10299;SDS011;5195;48.562;9.192;2022-09-27T09:53:21;2.20;;;2.07;;
10299;SDS011;5195;48.562;9.192;2022-09-27T09:55:57;0.87;;;0.87;;
10299;SDS011;5195;48.562;9.192;2022-09-27T10:01:25;5.22;;;4.93;;
10299;SDS011;5195;48.562;9.192;2022-09-27T10:03:50;1.90;;;1.80;;
10299;SDS011;5195;48.562;9.192;2022-09-27T10:06:16;1.03;;;0.93;;
10299;SDS011;5195;48.562;9.192;2022-09-27T10:08:42;4.30;;;2.57;;
10299;SDS011;5195;48.562;9.192;2022-09-27T10:11:12;2.28;;;2.17;;
10299;SDS011;5195;48.562;9.192;2022-09-27T10:13:33;1.95;;;1.30;;
10299;SDS011;5195;48.562;9.192;2022-09-27T10:16:10;2.45;;;2.30;;
10299;SDS011;5195;48.562;9.192;2022-09-27T10:18:31;2.90;;;1.70;;
10299;SDS011;5195;48.562;9.192;2022-09-27T10:21:00;2.93;;;2.00;;
10299;SDS011;5195;48.562;9.192;2022-09-27T10:23:25;1.70;;;1.60;;
10299;SDS011;5195;48.562;9.192;2022-09-27T10:25:58;1.70;;;1.60;;
10299;SDS011;5195;48.562;9.192;2022-09-27T10:28:37;2.20;;;2.10;;
10299;SDS011;5195;48.562;9.192;2022-09-27T10:31:03;1.30;;;1.20;;
10299;SDS011;5195;48.562;9.192;2022-09-27T10:33:27;1.83;;;1.27;;
10299;SDS011;5195;48.562;9.192;2022-09-27T10:35:54;2.10;;;1.50;;
10299;SDS011;5195;48.562;9.192;2022-09-27T10:40:56;2.77;;;1.20;;
10299;SDS011;5195;48.562;9.192;2022-09-27T10:43:32;2.67;;;1.30;;
10299;SDS011;5195;48.562;9.192;2022-09-27T10:46:02;1.40;;;1.30;;
10299;SDS011;5195;48.562;9.192;2022-09-27T10:48:29;2.00;;;1.27;;
10299;SDS011;5195;48.562;9.192;2022-09-27T10:50:56;2.62;;;1.20;;
10299;SDS011;5195;48.562;9.192;2022-09-27T10:53:22;0.87;;;0.87;;
10299;SDS011;5195;48.562;9.192;2022-09-27T10:55:49;1.33;;;1.23;;
10299;SDS011;5195;48.562;9.192;2022-09-27T10:58:17;1.70;;;1.37;;
10299;SDS011;5195;48.562;9.192;2022-09-27T11:00:43;1.10;;;1.00;;
10299;SDS011;5195;48.562;9.192;2022-09-27T11:03:13;2.40;;;1.30;;
10299;SDS011;5195;48.562;9.192;2022-09-27T11:05:39;2.17;;;1.45;;
10299;SDS011;5195;48.562;9.192;2022-09-27T11:13:39;1.08;;;0.88;;
10299;SDS011;5195;48.562;9.192;2022-09-27T11:30:03;0.85;;;0.60;;
10299;SDS011;5195;48.562;9.192;2022-09-27T11:37:59;0.80;;;0.80;;
10299;SDS011;5195;48.562;9.192;2022-09-27T11:40:40;1.43;;;0.90;;
10299;SDS011;5195;48.562;9.192;2022-09-27T11:43:11;1.77;;;0.82;;
10299;SDS011;5195;48.562;9.192;2022-09-27T11:48:04;0.63;;;0.63;;
10299;SDS011;5195;48.562;9.192;2022-09-27T11:50:44;0.90;;;0.80;;
10299;SDS011;5195;48.562;9.192;2022-09-27T12:01:50;0.40;;;0.40;;
10299;SDS011;5195;48.562;9.192;2022-09-27T12:04:35;0.67;;;0.67;;
10299;SDS011;5195;48.562;9.192;2022-09-27T12:09:40;1.87;;;0.53;;
10299;SDS011;5195;48.562;9.192;2022-09-27T12:12:09;0.70;;;0.70;;
10299;SDS011;5195;48.562;9.192;2022-09-27T12:17:01;0.53;;;0.53;;
10299;SDS011;5195;48.562;9.192;2022-09-27T12:19:27;0.90;;;0.67;;
10299;SDS011;5195;48.562;9.192;2022-09-27T12:21:54;0.80;;;0.80;;
10299;SDS011;5195;48.562;9.192;2022-09-27T12:24:19;1.10;;;1.00;;
10299;SDS011;5195;48.562;9.192;2022-09-27T12:26:44;2.33;;;0.90;;
10299;SDS011;5195;48.562;9.192;2022-09-27T12:29:31;1.33;;;0.88;;
10299;SDS011;5195;48.562;9.192;2022-09-27T12:34:18;0.70;;;0.70;;
10299;SDS011;5195;48.562;9.192;2022-09-27T12:36:44;0.53;;;0.53;;
10299;SDS011;5195;48.562;9.192;2022-09-27T12:41:50;0.97;;;0.70;;
10299;SDS011;5195;48.562;9.192;2022-09-27T12:44:13;1.00;;;0.88;;
10299;SDS011;5195;48.562;9.192;2022-09-27T12:51:58;0.90;;;0.80;;
10299;SDS011;5195;48.562;9.192;2022-09-27T13:00:21;1.53;;;0.40;;
10299;SDS011;5195;48.562;9.192;2022-09-27T13:05:37;1.37;;;0.60;;
10299;SDS011;5195;48.562;9.192;2022-09-27T13:13:54;0.60;;;0.60;;
10299;SDS011;5195;48.562;9.192;2022-09-27T13:16:19;0.82;;;0.80;;
10299;SDS011;5195;48.562;9.192;2022-09-27T13:32:38;1.00;;;0.60;;
10299;SDS011;5195;48.562;9.192;2022-09-27T13:35:21;1.00;;;0.80;;
10299;SDS011;5195;48.562;9.192;2022-09-27T13:37:56;0.60;;;0.60;;
10299;SDS011;5195;48.562;9.192;2022-09-27T13:40:22;1.33;;;0.40;;
10299;SDS011;5195;48.562;9.192;2022-09-27T13:45:49;1.30;;;0.60;;
10299;SDS011;5195;48.562;9.192;2022-09-27T13:48:31;0.40;;;0.40;;
10299;SDS011;5195;48.562;9.192;2022-09-27T13:51:19;0.53;;;0.33;;
10299;SDS011;5195;48.562;9.192;2022-09-27T13:53:39;0.63;;;0.53;;
10299;SDS011;5195;48.562;9.192;2022-09-27T13:56:05;0.70;;;0.50;;
10299;SDS011;5195;48.562;9.192;2022-09-27T13:58:41;0.40;;;0.40;;
10299;SDS011;5195;48.562;9.192;2022-09-27T14:01:32;0.40;;;0.40;;
10299;SDS011;5195;48.562;9.192;2022-09-27T14:03:44;0.60;;;0.40;;
10299;SDS011;5195;48.562;9.192;2022-09-27T14:08:58;0.40;;;0.40;;
10299;SDS011;5195;48.562;9.192;2022-09-27T14:11:27;0.40;;;0.40;;
10299;SDS011;5195;48.562;9.192;2022-09-27T14:13:50;0.50;;;0.50;;
10299;SDS011;5195;48.562;9.192;2022-09-27T14:16:16;0.43;;;0.43;;
10299;SDS011;5195;48.562;9.192;2022-09-27T14:18:42;0.60;;;0.57;;
10299;SDS011;5195;48.562;9.192;2022-09-27T14:21:14;0.97;;;0.63;;
10299;SDS011;5195;48.562;9.192;2022-09-27T14:23:36;0.70;;;0.67;;
10299;SDS011;5195;48.562;9.192;2022-09-27T14:26:01;0.70;;;0.53;;
10299;SDS011;5195;48.562;9.192;2022-09-27T14:28:29;0.43;;;0.43;;
10299;SDS011;5195;48.562;9.192;2022-09-27T14:31:05;0.77;;;0.70;;
10299;SDS011;5195;48.562;9.192;2022-09-27T14:33:36;0.40;;;0.30;;
10299;SDS011;5195;48.562;9.192;2022-09-27T14:36:02;0.50;;;0.50;;
10299;SDS011;5195;48.562;9.192;2022-09-27T14:38:48;0.40;;;0.40;;
10299;SDS011;5195;48.562;9.192;2022-09-27T14:41:13;0.70;;;0.40;;
10299;SDS011;5195;48.562;9.192;2022-09-27T14:43:43;0.80;;;0.80;;
10299;SDS011;5195;48.562;9.192;2022-09-27T14:46:20;0.50;;;0.43;;
10299;SDS011;5195;48.562;9.192;2022-09-27T14:48:37;0.40;;;0.40;;
10299;SDS011;5195;48.562;9.192;2022-09-27T14:51:15;0.50;;;0.50;;
10299;SDS011;5195;48.562;9.192;2022-09-27T14:53:33;1.20;;;0.40;;
10299;SDS011;5195;48.562;9.192;2022-09-27T14:55:58;1.73;;;0.40;;
10299;SDS011;5195;48.562;9.192;2022-09-27T14:58:23;0.50;;;0.40;;
10299;SDS011;5195;48.562;9.192;2022-09-27T15:00:49;0.40;;;0.40;;
10299;SDS011;5195;48.562;9.192;2022-09-27T15:03:18;3.60;;;0.40;;
10299;SDS011;5195;48.562;9.192;2022-09-27T15:05:45;0.50;;;0.43;;
10299;SDS011;5195;48.562;9.192;2022-09-27T15:08:11;0.85;;;0.70;;
10299;SDS011;5195;48.562;9.192;2022-09-27T15:10:36;0.40;;;0.40;;
10299;SDS011;5195;48.562;9.192;2022-09-27T15:13:02;0.30;;;0.30;;
10299;SDS011;5195;48.562;9.192;2022-09-27T15:15:30;0.40;;;0.40;;
10299;SDS011;5195;48.562;9.192;2022-09-27T15:17:58;0.33;;;0.33;;
10299;SDS011;5195;48.562;9.192;2022-09-27T15:20:25;0.17;;;0.17;;
10299;SDS011;5195;48.562;9.192;2022-09-27T15:22:54;0.30;;;0.30;;
10299;SDS011;5195;48.562;9.192;2022-09-27T15:25:27;0.63;;;0.30;;
10299;SDS011;5195;48.562;9.192;2022-09-27T15:27:54;0.80;;;0.40;;
10299;SDS011;5195;48.562;9.192;2022-09-27T15:30:24;0.45;;;0.45;;
10299;SDS011;5195;48.562;9.192;2022-09-27T15:32:49;0.30;;;0.30;;
10299;SDS011;5195;48.562;9.192;2022-09-27T15:35:16;0.55;;;0.50;;
10299;SDS011;5195;48.562;9.192;2022-09-27T15:37:40;0.30;;;0.30;;
10299;SDS011;5195;48.562;9.192;2022-09-27T15:43:00;0.60;;;0.37;;
10299;SDS011;5195;48.562;9.192;2022-09-27T15:45:27;0.43;;;0.43;;
10299;SDS011;5195;48.562;9.192;2022-09-27T15:47:54;1.10;;;0.35;;
10299;SDS011;5195;48.562;9.192;2022-09-27T15:52:51;0.40;;;0.40;;
10299;SDS011;5195;48.562;9.192;2022-09-27T15:55:16;1.60;;;0.60;;
10299;SDS011;5195;48.562;9.192;2022-09-27T15:57:41;0.30;;;0.30;;
10299;SDS011;5195;48.562;9.192;2022-09-27T16:00:09;0.30;;;0.30;;
10299;SDS011;5195;48.562;9.192;2022-09-27T16:02:32;0.93;;;0.50;;
10299;SDS011;5195;48.562;9.192;2022-09-27T16:05:00;0.93;;;0.40;;
10299;SDS011;5195;48.562;9.192;2022-09-27T16:07:26;3.33;;;0.60;;
10299;SDS011;5195;48.562;9.192;2022-09-27T16:09:51;0.50;;;0.50;;
10299;SDS011;5195;48.562;9.192;2022-09-27T16:12:17;1.00;;;0.40;;
10299;SDS011;5195;48.562;9.192;2022-09-27T16:14:42;0.53;;;0.40;;
10299;SDS011;5195;48.562;9.192;2022-09-27T16:17:08;1.20;;;0.67;;
10299;SDS011;5195;48.562;9.192;2022-09-27T16:19:33;0.40;;;0.40;;
10299;SDS011;5195;48.562;9.192;2022-09-27T16:21:59;0.47;;;0.30;;
10299;SDS011;5195;48.562;9.192;2022-09-27T16:24:25;0.53;;;0.53;;
10299;SDS011;5195;48.562;9.192;2022-09-27T16:26:50;0.83;;;0.83;;
10299;SDS011;5195;48.562;9.192;2022-09-27T16:29:16;2.12;;;2.03;;
10299;SDS011;5195;48.562;9.192;2022-09-27T16:31:41;1.08;;;0.88;;
10299;SDS011;5195;48.562;9.192;2022-09-27T16:34:07;1.33;;;1.20;;
10299;SDS011;5195;48.562;9.192;2022-09-27T16:36:33;0.90;;;0.77;;
10299;SDS011;5195;48.562;9.192;2022-09-27T16:38:58;1.20;;;1.20;;
10299;SDS011;5195;48.562;9.192;2022-09-27T16:41:24;1.02;;;0.88;;
10299;SDS011;5195;48.562;9.192;2022-09-27T16:43:49;1.10;;;1.00;;
10299;SDS011;5195;48.562;9.192;2022-09-27T16:46:15;0.83;;;0.73;;
10299;SDS011;5195;48.562;9.192;2022-09-27T16:48:41;1.48;;;0.80;;
10299;SDS011;5195;48.562;9.192;2022-09-27T16:51:10;1.53;;;0.80;;
10299;SDS011;5195;48.562;9.192;2022-09-27T16:53:51;1.80;;;1.70;;
10299;SDS011;5195;48.562;9.192;2022-09-27T16:56:18;2.03;;;1.53;;
10299;SDS011;5195;48.562;9.192;2022-09-27T16:58:46;1.27;;;1.00;;
10299;SDS011;5195;48.562;9.192;2022-09-27T17:01:11;1.57;;;1.50;;
10299;SDS011;5195;48.562;9.192;2022-09-27T17:03:36;1.43;;;1.33;;
10299;SDS011;5195;48.562;9.192;2022-09-27T17:06:02;1.40;;;1.30;;
10299;SDS011;5195;48.562;9.192;2022-09-27T17:08:30;0.93;;;0.93;;
10299;SDS011;5195;48.562;9.192;2022-09-27T17:10:56;1.00;;;1.00;;
10299;SDS011;5195;48.562;9.192;2022-09-27T17:13:22;1.00;;;1.00;;
10299;SDS011;5195;48.562;9.192;2022-09-27T17:15:47;1.37;;;1.27;;
10299;SDS011;5195;48.562;9.192;2022-09-27T17:18:13;1.03;;;1.03;;
10299;SDS011;5195;48.562;9.192;2022-09-27T17:20:40;0.90;;;0.60;;
10299;SDS011;5195;48.562;9.192;2022-09-27T17:23:05;2.08;;;1.20;;
10299;SDS011;5195;48.562;9.192;2022-09-27T17:25:31;1.00;;;0.90;;
10299;SDS011;5195;48.562;9.192;2022-09-27T17:27:59;1.30;;;0.65;;
10299;SDS011;5195;48.562;9.192;2022-09-27T17:30:25;1.60;;;1.37;;
10299;SDS011;5195;48.562;9.192;2022-09-27T17:32:51;1.00;;;0.90;;
10299;SDS011;5195;48.562;9.192;2022-09-27T17:35:20;0.90;;;0.80;;
10299;SDS011;5195;48.562;9.192;2022-09-27T17:37:46;0.98;;;0.80;;
10299;SDS011;5195;48.562;9.192;2022-09-27T17:40:11;2.28;;;0.73;;
10299;SDS011;5195;48.562;9.192;2022-09-27T17:42:37;1.50;;;0.70;;
10299;SDS011;5195;48.562;9.192;2022-09-27T17:45:02;1.00;;;0.83;;
10299;SDS011;5195;48.562;9.192;2022-09-27T17:47:28;1.30;;;1.20;;
10299;SDS011;5195;48.562;9.192;2022-09-27T17:50:15;8.60;;;8.10;;
10299;SDS011;5195;48.562;9.192;2022-09-27T17:52:50;11.27;;;10.60;;
10299;SDS011;5195;48.562;9.192;2022-09-27T17:55:16;14.17;;;12.93;;